Farrandsville, Pennsylvania
Current Conditions -  °F | °C
As of 4:15 AM on Friday 19 Dec 2014 (Local Time) from KUNV Reporting Station
Overcast Overcast  
Wind Chill: 21°   Ceiling: 1900
Heat Index: 30°   Visibility: 10mi
Dew Point: 25°   Wind: 10mph
Humidity: 80%   Direction: 270°W
Pressure: 30.05"   Gusts: NA
Location:  41.17°N, 77.51°W
Report Text: KUNV 190915Z AUTO 27009KT 10SM OVC019 M01/M04 A3005 RMK AO2 T10101040
Loading
Personal Weather Stations






























Interactive Weather Map New forecast layout! Learn more

10-Day Weather Forecast

Advertisements
Track Severe Weather on mobile